Time;durP1;ratioP1;P1;durP2;ratioP2;P2;SDS_P1;SDS_P2;PMS_P1;PMS_P2;Temp;Humidity;BMP_temperature;BMP_pressure;BME280_temperature;BME280_humidity;BME280_pressure;Samples;Min_cycle;Max_cycle;Signal;HPM_P1;HPM_P2
2021/09/16 00:01:43;;;;;;;9.80;6.93;;;;;;;;;;5009929;28;20461;-73
2021/09/16 00:04:09;;;;;;;11.83;7.10;;;;;;;;;;5009807;28;20421;-74
2021/09/16 00:06:35;;;;;;;9.03;6.50;;;;;;;;;;5009433;28;20430;-74
2021/09/16 00:09:02;;;;;;;10.27;6.57;;;;;;;;;;5009766;28;20921;-74
2021/09/16 00:11:28;;;;;;;10.70;7.10;;;;;;;;;;5009782;28;20507;-73
2021/09/16 00:13:54;;;;;;;10.00;6.93;;;;;;;;;;5009585;28;20417;-73
2021/09/16 00:16:20;;;;;;;13.30;7.27;;;;;;;;;;5009541;28;20774;-73
2021/09/16 00:18:46;;;;;;;9.63;7.20;;;;;;;;;;5009208;28;20461;-74
2021/09/16 00:21:12;;;;;;;11.10;7.83;;;;;;;;;;5009561;28;20540;-73
2021/09/16 00:23:38;;;;;;;9.30;6.87;;;;;;;;;;5009422;28;20760;-73
2021/09/16 00:26:04;;;;;;;8.77;7.87;;;;;;;;;;5008090;28;20783;-73
2021/09/16 00:28:30;;;;;;;10.83;7.87;;;;;;;;;;5009158;28;20427;-73
2021/09/16 00:30:56;;;;;;;10.07;8.50;;;;;;;;;;5009861;28;20449;-73
2021/09/16 00:33:22;;;;;;;10.17;7.03;;;;;;;;;;5009480;28;20417;-73
2021/09/16 00:35:48;;;;;;;13.57;9.00;;;;;;;;;;5009404;28;20424;-73
2021/09/16 00:38:14;;;;;;;14.23;7.70;;;;;;;;;;5008884;28;20464;-73
2021/09/16 00:40:40;;;;;;;10.13;7.97;;;;;;;;;;5009319;28;20461;-73
2021/09/16 00:43:06;;;;;;;12.30;8.07;;;;;;;;;;5009428;28;20498;-72
2021/09/16 00:45:32;;;;;;;9.57;7.70;;;;;;;;;;5016681;28;20524;-73
2021/09/16 00:47:58;;;;;;;11.57;7.30;;;;;;;;;;5034311;28;20418;-74
2021/09/16 00:50:25;;;;;;;10.83;7.83;;;;;;;;;;5016721;28;20433;-72
2021/09/16 00:52:51;;;;;;;10.03;6.40;;;;;;;;;;5016779;28;20452;-72
2021/09/16 00:55:18;;;;;;;10.27;7.60;;;;;;;;;;5016847;28;20409;-72
2021/09/16 00:57:46;;;;;;;13.73;7.60;;;;;;;;;;5016641;28;20499;-72
2021/09/16 01:00:12;;;;;;;9.00;7.40;;;;;;;;;;5016736;28;20444;-73
2021/09/16 01:02:38;;;;;;;10.37;7.47;;;;;;;;;;5016602;28;20417;-72
2021/09/16 01:05:04;;;;;;;9.40;7.20;;;;;;;;;;5016608;28;20398;-74
2021/09/16 01:07:31;;;;;;;11.33;7.20;;;;;;;;;;5016611;28;20464;-73
2021/09/16 01:09:59;;;;;;;11.07;7.33;;;;;;;;;;5016516;28;20493;-73
2021/09/16 01:12:25;;;;;;;11.23;7.77;;;;;;;;;;5016192;28;20448;-74
2021/09/16 01:14:51;;;;;;;12.63;7.90;;;;;;;;;;5016651;28;20495;-73
2021/09/16 01:17:17;;;;;;;12.03;9.20;;;;;;;;;;5015921;28;20421;-73
2021/09/16 01:19:43;;;;;;;11.27;8.17;;;;;;;;;;5016177;28;20468;-73
2021/09/16 01:22:13;;;;;;;8.43;7.57;;;;;;;;;;5016286;28;20437;-72
2021/09/16 01:24:39;;;;;;;11.07;7.67;;;;;;;;;;5017927;28;20766;-73
2021/09/16 01:27:05;;;;;;;9.07;7.30;;;;;;;;;;5017219;28;20429;-73
2021/09/16 01:29:31;;;;;;;8.20;7.13;;;;;;;;;;5015968;28;20444;-74
2021/09/16 01:32:01;;;;;;;9.10;6.80;;;;;;;;;;5016161;28;20425;-73
2021/09/16 01:34:27;;;;;;;12.63;7.43;;;;;;;;;;5016100;28;20767;-72
2021/09/16 01:36:53;;;;;;;12.07;7.80;;;;;;;;;;5015774;28;20432;-73
2021/09/16 01:39:19;;;;;;;10.17;7.33;;;;;;;;;;5015778;28;20496;-73
2021/09/16 01:41:45;;;;;;;10.60;7.60;;;;;;;;;;5015814;28;20417;-73
2021/09/16 01:44:11;;;;;;;7.43;6.73;;;;;;;;;;5015997;28;20417;-73
2021/09/16 01:46:37;;;;;;;10.83;6.37;;;;;;;;;;5015531;28;20409;-73
2021/09/16 01:49:04;;;;;;;7.80;7.00;;;;;;;;;;5020439;28;20431;-73
2021/09/16 01:51:30;;;;;;;8.07;6.10;;;;;;;;;;5015846;28;20500;-73
2021/09/16 01:53:56;;;;;;;9.57;6.00;;;;;;;;;;5015567;28;20425;-74
2021/09/16 01:56:22;;;;;;;9.83;6.50;;;;;;;;;;5015613;28;20416;-72
2021/09/16 01:58:48;;;;;;;6.60;5.40;;;;;;;;;;5014147;28;20479;-73
2021/09/16 02:01:14;;;;;;;7.87;4.93;;;;;;;;;;5015493;28;20447;-73
2021/09/16 02:03:40;;;;;;;5.40;4.90;;;;;;;;;;5015478;28;20778;-73
2021/09/16 02:06:06;;;;;;;7.53;4.93;;;;;;;;;;5015346;28;20444;-73
2021/09/16 02:08:32;;;;;;;8.20;4.90;;;;;;;;;;5015222;28;20943;-73
2021/09/16 02:10:58;;;;;;;7.00;4.73;;;;;;;;;;5015159;28;20539;-73
2021/09/16 02:13:25;;;;;;;6.77;3.67;;;;;;;;;;5028860;28;20417;-73
2021/09/16 02:15:51;;;;;;;4.97;4.00;;;;;;;;;;5015372;28;20774;-73
2021/09/16 02:18:17;;;;;;;3.67;3.37;;;;;;;;;;5014931;28;20475;-74
2021/09/16 02:20:43;;;;;;;5.17;3.33;;;;;;;;;;5015208;28;20524;-73
2021/09/16 02:23:09;;;;;;;5.83;3.60;;;;;;;;;;5015132;28;20446;-73
2021/09/16 02:25:35;;;;;;;5.30;3.27;;;;;;;;;;5014932;28;20925;-73
2021/09/16 02:28:01;;;;;;;7.97;2.80;;;;;;;;;;5014908;28;20415;-74
2021/09/16 02:30:27;;;;;;;5.20;2.93;;;;;;;;;;5014957;28;20445;-73
2021/09/16 02:32:54;;;;;;;7.53;2.80;;;;;;;;;;5014993;28;20787;-73
2021/09/16 02:35:20;;;;;;;4.73;2.77;;;;;;;;;;5014970;28;20451;-73
2021/09/16 02:37:46;;;;;;;4.83;2.43;;;;;;;;;;5014894;28;20408;-73
2021/09/16 02:40:12;;;;;;;7.50;2.77;;;;;;;;;;5014800;28;20840;-73
2021/09/16 02:42:38;;;;;;;4.10;3.53;;;;;;;;;;5015148;28;20502;-74
2021/09/16 02:45:05;;;;;;;4.70;2.40;;;;;;;;;;5014931;28;20747;-73
2021/09/16 02:47:31;;;;;;;4.63;2.23;;;;;;;;;;5014486;28;20412;-72
2021/09/16 02:49:57;;;;;;;9.73;2.27;;;;;;;;;;5014703;28;20595;-73
2021/09/16 02:52:23;;;;;;;3.50;2.23;;;;;;;;;;5014845;28;20416;-72
2021/09/16 02:54:49;;;;;;;3.90;2.10;;;;;;;;;;5014641;28;20427;-72
2021/09/16 02:57:15;;;;;;;4.50;2.27;;;;;;;;;;5014061;28;20424;-74
2021/09/16 02:59:41;;;;;;;4.47;2.27;;;;;;;;;;5014422;28;20799;-73
2021/09/16 03:02:07;;;;;;;6.03;2.60;;;;;;;;;;5014568;28;20435;-72
2021/09/16 03:04:33;;;;;;;2.67;1.70;;;;;;;;;;5014536;28;20470;-73
2021/09/16 03:06:59;;;;;;;10.43;2.57;;;;;;;;;;5013912;28;20496;-74
2021/09/16 03:09:25;;;;;;;3.00;2.27;;;;;;;;;;5013300;28;20526;-74
2021/09/16 03:11:51;;;;;;;6.90;2.37;;;;;;;;;;5014465;28;20422;-73
2021/09/16 03:14:17;;;;;;;3.60;2.00;;;;;;;;;;5014555;28;20507;-74
2021/09/16 03:16:43;;;;;;;3.20;2.00;;;;;;;;;;5013931;28;20441;-72
2021/09/16 03:19:09;;;;;;;2.97;1.83;;;;;;;;;;5012776;28;20991;-72
2021/09/16 03:21:35;;;;;;;7.50;2.10;;;;;;;;;;5012703;28;20420;-72
2021/09/16 03:24:01;;;;;;;3.57;2.00;;;;;;;;;;5013824;28;20421;-72
2021/09/16 03:26:27;;;;;;;4.07;2.00;;;;;;;;;;5014224;28;20864;-72
2021/09/16 03:28:53;;;;;;;6.73;4.00;;;;;;;;;;5013900;28;20420;-73
2021/09/16 03:31:19;;;;;;;3.63;2.10;;;;;;;;;;5013743;28;20582;-72
2021/09/16 03:33:45;;;;;;;4.40;2.33;;;;;;;;;;5012314;28;20944;-73
2021/09/16 03:36:11;;;;;;;4.17;2.07;;;;;;;;;;5022100;28;20423;-73
2021/09/16 03:38:37;;;;;;;3.17;1.67;;;;;;;;;;5018009;28;20482;-73
2021/09/16 03:41:03;;;;;;;4.10;1.60;;;;;;;;;;5013913;28;20437;-73
2021/09/16 03:43:29;;;;;;;5.83;1.80;;;;;;;;;;5013787;28;20415;-73
2021/09/16 03:45:55;;;;;;;3.50;1.67;;;;;;;;;;5013816;28;20447;-73
2021/09/16 03:48:21;;;;;;;6.80;1.70;;;;;;;;;;5013619;28;20431;-73
2021/09/16 03:50:48;;;;;;;5.00;1.70;;;;;;;;;;5013576;28;20803;-72
2021/09/16 03:53:14;;;;;;;2.70;1.67;;;;;;;;;;5013814;28;20775;-73
2021/09/16 03:55:40;;;;;;;3.90;2.13;;;;;;;;;;5013564;28;20421;-73
2021/09/16 03:58:06;;;;;;;2.70;1.63;;;;;;;;;;5013087;28;20461;-73
2021/09/16 04:00:32;;;;;;;3.50;1.87;;;;;;;;;;5013699;28;20482;-73
2021/09/16 04:03:05;;;;;;;3.30;1.60;;;;;;;;;;5013406;28;20415;-73
2021/09/16 04:05:31;;;;;;;3.03;1.60;;;;;;;;;;5013348;28;20432;-72
2021/09/16 04:07:57;;;;;;;3.30;2.40;;;;;;;;;;5012852;28;20826;-73
2021/09/16 04:10:23;;;;;;;4.73;1.50;;;;;;;;;;5013446;28;20473;-72
2021/09/16 04:12:49;;;;;;;9.87;1.90;;;;;;;;;;5012087;28;20424;-72
2021/09/16 04:15:15;;;;;;;2.17;1.50;;;;;;;;;;5013560;28;20415;-73
2021/09/16 04:17:41;;;;;;;4.67;1.80;;;;;;;;;;5012754;28;20451;-72
2021/09/16 04:20:07;;;;;;;3.60;1.73;;;;;;;;;;5013693;28;20831;-73
2021/09/16 04:22:33;;;;;;;3.60;1.80;;;;;;;;;;5019656;28;20426;-73
2021/09/16 04:24:59;;;;;;;2.87;1.60;;;;;;;;;;5019912;28;20415;-72
2021/09/16 04:27:25;;;;;;;3.17;1.87;;;;;;;;;;5019438;28;20782;-73
2021/09/16 04:29:51;;;;;;;2.57;1.63;;;;;;;;;;5043303;28;20432;-72
2021/09/16 04:32:17;;;;;;;2.87;1.70;;;;;;;;;;5022083;28;20436;-71
2021/09/16 04:34:43;;;;;;;4.57;2.37;;;;;;;;;;5019796;28;20862;-73
2021/09/16 04:37:09;;;;;;;4.37;2.00;;;;;;;;;;5017966;28;20814;-72
2021/09/16 04:39:35;;;;;;;4.60;2.00;;;;;;;;;;5019619;28;20462;-73
2021/09/16 04:42:01;;;;;;;3.13;1.63;;;;;;;;;;5019276;28;20835;-73
2021/09/16 04:44:27;;;;;;;7.53;1.90;;;;;;;;;;5018318;28;20782;-71
2021/09/16 04:46:53;;;;;;;2.80;1.60;;;;;;;;;;5019365;28;20414;-74
2021/09/16 04:49:20;;;;;;;4.13;1.47;;;;;;;;;;5019485;28;20417;-73
2021/09/16 04:51:46;;;;;;;5.40;1.73;;;;;;;;;;5018288;28;20426;-72
2021/09/16 04:54:12;;;;;;;3.00;1.70;;;;;;;;;;5019484;28;20427;-72
2021/09/16 04:56:38;;;;;;;4.13;1.80;;;;;;;;;;5028580;28;21282;-73
2021/09/16 04:59:04;;;;;;;3.77;2.17;;;;;;;;;;5019608;28;20458;-74
2021/09/16 05:01:30;;;;;;;3.00;1.80;;;;;;;;;;5019368;28;20411;-73
2021/09/16 05:03:56;;;;;;;4.77;1.90;;;;;;;;;;5019748;28;20416;-73
2021/09/16 05:06:22;;;;;;;3.10;1.77;;;;;;;;;;5024189;28;20431;-74
2021/09/16 05:08:48;;;;;;;2.30;1.87;;;;;;;;;;5027034;28;20416;-73
2021/09/16 05:11:14;;;;;;;6.70;2.30;;;;;;;;;;5019388;28;20483;-74
2021/09/16 05:13:40;;;;;;;2.70;1.97;;;;;;;;;;5018064;28;20423;-72
2021/09/16 05:16:06;;;;;;;3.83;2.73;;;;;;;;;;5019332;28;20433;-73
2021/09/16 05:18:32;;;;;;;4.10;2.17;;;;;;;;;;5018898;28;20470;-73
2021/09/16 05:20:58;;;;;;;6.50;2.80;;;;;;;;;;5019539;28;20487;-73
2021/09/16 05:23:24;;;;;;;3.17;2.30;;;;;;;;;;5019257;28;20468;-72
2021/09/16 05:25:50;;;;;;;4.70;3.10;;;;;;;;;;5024369;28;20751;-72
2021/09/16 05:28:16;;;;;;;5.97;3.17;;;;;;;;;;5038829;28;20421;-72
2021/09/16 05:30:42;;;;;;;4.30;2.97;;;;;;;;;;5029801;28;20446;-72
2021/09/16 05:33:09;;;;;;;7.10;3.17;;;;;;;;;;5016097;28;20429;-73
2021/09/16 05:35:39;;;;;;;3.70;3.30;;;;;;;;;;5016278;28;20943;-72
2021/09/16 05:38:05;;;;;;;3.87;3.47;;;;;;;;;;5014343;28;20481;-71
2021/09/16 05:40:31;;;;;;;5.10;3.50;;;;;;;;;;5015941;28;20521;-73
2021/09/16 05:42:57;;;;;;;5.30;3.43;;;;;;;;;;5029383;28;20422;-73
2021/09/16 05:45:23;;;;;;;6.67;4.10;;;;;;;;;;5014922;28;20472;-72
2021/09/16 05:47:49;;;;;;;4.90;4.37;;;;;;;;;;5015430;28;20411;-73
2021/09/16 05:50:15;;;;;;;4.27;3.90;;;;;;;;;;5015838;28;20434;-73
2021/09/16 05:52:41;;;;;;;6.33;4.03;;;;;;;;;;5015312;28;20518;-72
2021/09/16 05:55:09;;;;;;;7.67;4.53;;;;;;;;;;5015659;28;20426;-73
2021/09/16 05:57:35;;;;;;;5.50;4.77;;;;;;;;;;5015117;28;20420;-73
2021/09/16 06:00:01;;;;;;;6.50;5.20;;;;;;;;;;5015382;28;20873;-72
2021/09/16 06:02:27;;;;;;;5.97;5.37;;;;;;;;;;5015244;28;20445;-73
2021/09/16 06:04:53;;;;;;;8.10;5.73;;;;;;;;;;5015390;28;20462;-73
2021/09/16 06:07:19;;;;;;;7.30;5.40;;;;;;;;;;5015177;28;20426;-72
2021/09/16 06:09:45;;;;;;;7.03;6.33;;;;;;;;;;5025555;28;20479;-74
2021/09/16 06:12:11;;;;;;;7.77;6.10;;;;;;;;;;5018145;28;20437;-74
2021/09/16 06:14:37;;;;;;;7.43;5.87;;;;;;;;;;5015750;28;20448;-73
2021/09/16 06:17:03;;;;;;;7.07;6.37;;;;;;;;;;5014748;28;20893;-72
2021/09/16 06:19:29;;;;;;;6.70;6.00;;;;;;;;;;5014956;28;20470;-71
2021/09/16 06:21:55;;;;;;;9.03;6.67;;;;;;;;;;5012717;28;20425;-73
2021/09/16 06:24:21;;;;;;;8.20;6.60;;;;;;;;;;5020411;28;20416;-73
2021/09/16 06:26:47;;;;;;;9.93;6.30;;;;;;;;;;5018904;28;20418;-73
2021/09/16 06:29:14;;;;;;;8.30;6.83;;;;;;;;;;5026031;28;20441;-70
2021/09/16 06:31:40;;;;;;;9.00;8.10;;;;;;;;;;5031418;28;20431;-72
2021/09/16 06:34:06;;;;;;;8.37;6.27;;;;;;;;;;5023503;28;20429;-73
2021/09/16 06:36:32;;;;;;;7.93;6.70;;;;;;;;;;5030786;28;20426;-72
2021/09/16 06:38:58;;;;;;;7.53;6.73;;;;;;;;;;5032654;28;20574;-71
2021/09/16 06:41:24;;;;;;;10.27;6.73;;;;;;;;;;5016181;28;20519;-72
2021/09/16 06:43:50;;;;;;;9.90;7.20;;;;;;;;;;5024112;28;20433;-71
2021/09/16 06:46:16;;;;;;;11.57;6.83;;;;;;;;;;5011862;28;20428;-71
2021/09/16 06:48:42;;;;;;;9.80;7.27;;;;;;;;;;5010497;28;20884;-72
2021/09/16 06:51:08;;;;;;;8.70;7.20;;;;;;;;;;5010775;28;20443;-71
2021/09/16 06:53:34;;;;;;;7.77;6.97;;;;;;;;;;5010852;28;20423;-72
2021/09/16 06:56:00;;;;;;;11.50;7.27;;;;;;;;;;5010845;28;20424;-73
2021/09/16 06:58:26;;;;;;;10.43;8.00;;;;;;;;;;5010319;28;20472;-72
2021/09/16 07:00:52;;;;;;;11.37;8.23;;;;;;;;;;5011870;28;20449;-73
2021/09/16 07:03:18;;;;;;;10.87;7.30;;;;;;;;;;5017692;28;20473;-71
2021/09/16 07:05:44;;;;;;;9.57;8.57;;;;;;;;;;5013358;28;20802;-71
2021/09/16 07:08:10;;;;;;;9.80;7.40;;;;;;;;;;5010259;28;20474;-72
2021/09/16 07:10:36;;;;;;;12.03;7.50;;;;;;;;;;5010384;28;20514;-72
2021/09/16 07:13:02;;;;;;;8.17;7.30;;;;;;;;;;5010578;28;20434;-72
2021/09/16 07:15:28;;;;;;;8.43;7.50;;;;;;;;;;5012475;28;20444;-71
2021/09/16 07:17:54;;;;;;;8.53;7.73;;;;;;;;;;5018832;28;20443;-71
2021/09/16 07:20:20;;;;;;;8.47;7.77;;;;;;;;;;5010363;28;20478;-71
2021/09/16 07:22:46;;;;;;;8.53;7.73;;;;;;;;;;5019761;28;20480;-71
2021/09/16 07:25:13;;;;;;;9.37;7.50;;;;;;;;;;5019849;28;20432;-71
2021/09/16 07:27:39;;;;;;;10.50;8.37;;;;;;;;;;5016928;28;20425;-71
2021/09/16 07:30:05;;;;;;;9.17;7.53;;;;;;;;;;5009988;28;20469;-71
2021/09/16 07:32:32;;;;;;;9.10;8.20;;;;;;;;;;5010941;28;20485;-71
2021/09/16 07:34:59;;;;;;;9.77;8.97;;;;;;;;;;5010451;28;20451;-72
2021/09/16 07:37:25;;;;;;;10.60;8.30;;;;;;;;;;5013174;28;20452;-72
2021/09/16 07:39:51;;;;;;;8.90;8.00;;;;;;;;;;5018541;28;20483;-70
2021/09/16 07:42:17;;;;;;;8.03;7.23;;;;;;;;;;5011215;28;20524;-70
2021/09/16 07:44:43;;;;;;;8.83;7.60;;;;;;;;;;5009942;28;20506;-70
2021/09/16 07:47:09;;;;;;;8.47;7.67;;;;;;;;;;5012861;28;20435;-70
2021/09/16 07:49:35;;;;;;;8.30;7.60;;;;;;;;;;5015115;28;20447;-71
2021/09/16 07:52:01;;;;;;;8.73;7.83;;;;;;;;;;5024077;28;20829;-71
2021/09/16 07:54:27;;;;;;;8.40;7.57;;;;;;;;;;5014810;28;20443;-71
2021/09/16 07:56:53;;;;;;;7.63;6.87;;;;;;;;;;5008822;28;20432;-70
2021/09/16 07:59:19;;;;;;;7.03;6.20;;;;;;;;;;5022469;28;20821;-71
2021/09/16 08:01:45;;;;;;;10.27;5.53;;;;;;;;;;5030667;28;20419;-72
2021/09/16 08:04:11;;;;;;;13.30;6.50;;;;;;;;;;5020970;28;20439;-72
2021/09/16 08:06:37;;;;;;;9.53;6.50;;;;;;;;;;5014446;28;20483;-72
2021/09/16 08:09:03;;;;;;;6.17;5.57;;;;;;;;;;5021408;28;20478;-71
2021/09/16 08:11:29;;;;;;;7.13;6.13;;;;;;;;;;5029076;28;20468;-71
2021/09/16 08:13:55;;;;;;;7.60;5.73;;;;;;;;;;5026175;28;20432;-70
2021/09/16 08:16:22;;;;;;;6.77;6.07;;;;;;;;;;5017869;28;20435;-71
2021/09/16 08:18:48;;;;;;;4.63;4.17;;;;;;;;;;5016293;28;20588;-71
2021/09/16 08:21:15;;;;;;;5.70;4.57;;;;;;;;;;5010906;28;20475;-71
2021/09/16 08:23:42;;;;;;;5.33;4.83;;;;;;;;;;5018028;28;20441;-72
2021/09/16 08:26:08;;;;;;;7.23;5.53;;;;;;;;;;5010453;28;20598;-72
2021/09/16 08:28:37;;;;;;;7.80;4.50;;;;;;;;;;5009199;28;20441;-72
2021/09/16 08:31:03;;;;;;;4.90;3.57;;;;;;;;;;5009099;28;20505;-71
2021/09/16 08:33:29;;;;;;;6.60;4.30;;;;;;;;;;5013640;28;20467;-72
2021/09/16 08:35:55;;;;;;;4.70;3.40;;;;;;;;;;5009081;28;20434;-72
2021/09/16 08:38:21;;;;;;;7.90;3.90;;;;;;;;;;5014130;28;20832;-71
2021/09/16 08:40:47;;;;;;;6.90;3.73;;;;;;;;;;5025943;28;20491;-72
2021/09/16 08:43:14;;;;;;;6.17;3.90;;;;;;;;;;5013263;28;20468;-69
2021/09/16 08:45:40;;;;;;;4.03;3.50;;;;;;;;;;5010219;28;20457;-71
2021/09/16 08:48:07;;;;;;;5.57;3.00;;;;;;;;;;5010160;28;20915;-71
2021/09/16 08:50:33;;;;;;;7.00;4.23;;;;;;;;;;5011164;28;20437;-72
2021/09/16 08:52:59;;;;;;;5.87;2.97;;;;;;;;;;5010538;28;20433;-72
2021/09/16 08:55:27;;;;;;;3.03;2.70;;;;;;;;;;5033110;28;20417;-72
2021/09/16 08:57:58;;;;;;;3.90;3.07;;;;;;;;;;5029589;28;20437;-71
2021/09/16 09:00:24;;;;;;;5.33;3.00;;;;;;;;;;5018351;28;20492;-72
2021/09/16 09:02:51;;;;;;;5.70;3.77;;;;;;;;;;5008968;28;20428;-71
2021/09/16 09:05:17;;;;;;;5.83;3.00;;;;;;;;;;5025809;28;20763;-72
2021/09/16 09:07:48;;;;;;;6.43;2.97;;;;;;;;;;5025638;28;20433;-72
2021/09/16 09:10:33;;;;;;;5.67;3.00;;;;;;;;;;5012787;28;20448;-72
2021/09/16 09:12:59;;;;;;;2.90;2.60;;;;;;;;;;5020093;28;20801;-74
2021/09/16 09:15:25;;;;;;;5.60;2.80;;;;;;;;;;5013752;28;20455;-72
2021/09/16 09:18:09;;;;;;;4.90;2.93;;;;;;;;;;5024403;28;20455;-71
2021/09/16 09:20:52;;;;;;;3.07;2.73;;;;;;;;;;5015009;28;20448;-72
2021/09/16 09:23:25;;;;;;;4.40;2.90;;;;;;;;;;5013311;28;20420;-71
2021/09/16 09:25:51;;;;;;;6.20;3.30;;;;;;;;;;5012374;28;20476;-72
2021/09/16 09:28:26;;;;;;;5.27;2.73;;;;;;;;;;5012003;28;20414;-73
2021/09/16 09:30:52;;;;;;;5.73;3.03;;;;;;;;;;5012583;28;20429;-71
2021/09/16 09:33:26;;;;;;;5.13;3.33;;;;;;;;;;5013555;28;20828;-71
2021/09/16 09:35:52;;;;;;;4.60;3.10;;;;;;;;;;5021799;28;20515;-72
2021/09/16 09:38:19;;;;;;;4.83;2.93;;;;;;;;;;5021956;28;20503;-71
2021/09/16 09:40:47;;;;;;;3.33;2.70;;;;;;;;;;5020563;28;20481;-72
2021/09/16 09:43:18;;;;;;;4.97;3.10;;;;;;;;;;5017511;28;20429;-72
2021/09/16 09:46:03;;;;;;;6.30;3.30;;;;;;;;;;5022236;28;20428;-72
2021/09/16 09:48:29;;;;;;;4.63;3.30;;;;;;;;;;5015940;28;20422;-71
2021/09/16 09:50:56;;;;;;;5.17;3.57;;;;;;;;;;5011763;28;20455;-71
2021/09/16 09:53:22;;;;;;;7.83;3.43;;;;;;;;;;5020646;28;20425;-71
2021/09/16 09:55:50;;;;;;;5.93;3.27;;;;;;;;;;5011792;28;20422;-72
2021/09/16 09:58:16;;;;;;;5.23;3.00;;;;;;;;;;5014927;28;20429;-71
2021/09/16 10:00:42;;;;;;;5.60;3.23;;;;;;;;;;5018390;28;20441;-72
2021/09/16 10:03:09;;;;;;;4.30;2.63;;;;;;;;;;5011725;28;20933;-71
2021/09/16 10:05:36;;;;;;;3.80;2.87;;;;;;;;;;5014439;28;20437;-73
2021/09/16 10:08:05;;;;;;;4.37;2.80;;;;;;;;;;5011317;28;20426;-72
2021/09/16 10:10:40;;;;;;;7.83;3.23;;;;;;;;;;5017630;28;20568;-73
2021/09/16 10:13:06;;;;;;;3.30;2.67;;;;;;;;;;5011568;28;20432;-72
2021/09/16 10:15:32;;;;;;;3.90;2.50;;;;;;;;;;5011584;28;20416;-72
2021/09/16 10:17:58;;;;;;;4.03;2.90;;;;;;;;;;5015248;28;20429;-71
2021/09/16 10:20:26;;;;;;;3.80;2.90;;;;;;;;;;5017125;28;20473;-73
2021/09/16 10:22:54;;;;;;;4.97;3.23;;;;;;;;;;5011996;28;20498;-73
2021/09/16 10:25:21;;;;;;;5.90;3.83;;;;;;;;;;5011386;28;20757;-72
2021/09/16 10:27:48;;;;;;;4.77;3.00;;;;;;;;;;5009745;28;20515;-72
2021/09/16 10:30:23;;;;;;;4.60;2.90;;;;;;;;;;5011128;28;20452;-71
2021/09/16 10:33:01;;;;;;;4.00;3.57;;;;;;;;;;5016073;28;20440;-71
2021/09/16 10:35:28;;;;;;;3.57;3.23;;;;;;;;;;5010275;28;20429;-72
2021/09/16 10:37:54;;;;;;;3.27;2.20;;;;;;;;;;5020811;28;20538;-73
2021/09/16 10:40:25;;;;;;;2.70;2.37;;;;;;;;;;5011309;28;20476;-72
2021/09/16 10:43:04;;;;;;;4.27;2.93;;;;;;;;;;5019431;28;20521;-73
2021/09/16 10:45:38;;;;;;;5.77;2.40;;;;;;;;;;5018342;28;20980;-72
2021/09/16 10:48:13;;;;;;;3.43;2.50;;;;;;;;;;5016823;28;20506;-73
2021/09/16 10:50:43;;;;;;;3.00;2.30;;;;;;;;;;5019659;28;20992;-71
2021/09/16 10:53:28;;;;;;;3.03;2.00;;;;;;;;;;5022461;28;20428;-70
2021/09/16 10:55:54;;;;;;;4.20;2.33;;;;;;;;;;5014046;28;20871;-70
2021/09/16 10:58:23;;;;;;;5.10;2.50;;;;;;;;;;5019683;28;20435;-72
2021/09/16 11:00:49;;;;;;;4.07;2.60;;;;;;;;;;5017199;28;20586;-71
2021/09/16 11:03:16;;;;;;;4.40;2.43;;;;;;;;;;5021369;28;20428;-70
2021/09/16 11:05:46;;;;;;;3.80;2.27;;;;;;;;;;5010425;28;20503;-70
2021/09/16 11:08:12;;;;;;;4.17;2.20;;;;;;;;;;5010719;28;20819;-72
2021/09/16 11:10:38;;;;;;;3.53;2.30;;;;;;;;;;5010594;28;20439;-73
2021/09/16 11:13:25;;;;;;;3.57;2.00;;;;;;;;;;5017518;28;20920;-73
2021/09/16 11:15:53;;;;;;;5.17;2.70;;;;;;;;;;5011256;28;20471;-72
2021/09/16 11:18:21;;;;;;;3.00;2.63;;;;;;;;;;5010143;28;20425;-72
2021/09/16 11:20:48;;;;;;;3.23;2.00;;;;;;;;;;5010697;28;20949;-72
2021/09/16 11:23:15;;;;;;;3.40;2.53;;;;;;;;;;5010566;28;20454;-72
2021/09/16 11:25:42;;;;;;;3.30;2.10;;;;;;;;;;5023667;28;20913;-71
2021/09/16 11:28:09;;;;;;;2.70;1.93;;;;;;;;;;5011774;28;20441;-72
2021/09/16 11:30:35;;;;;;;3.13;1.87;;;;;;;;;;5009513;28;20902;-72
2021/09/16 11:33:03;;;;;;;2.63;2.03;;;;;;;;;;5025872;28;20482;-72
2021/09/16 11:35:29;;;;;;;3.07;2.10;;;;;;;;;;5010216;28;20444;-71
2021/09/16 11:37:55;;;;;;;4.97;1.90;;;;;;;;;;5011045;28;20421;-72
2021/09/16 11:40:23;;;;;;;2.30;1.77;;;;;;;;;;5011724;28;20475;-71
2021/09/16 11:42:50;;;;;;;9.20;2.00;;;;;;;;;;5024150;28;20448;-72
2021/09/16 11:45:27;;;;;;;3.93;1.77;;;;;;;;;;5025511;28;20570;-72
2021/09/16 11:48:01;;;;;;;2.10;1.50;;;;;;;;;;5029596;28;20423;-72
2021/09/16 11:50:45;;;;;;;4.00;1.83;;;;;;;;;;5029735;28;20822;-72
2021/09/16 11:53:12;;;;;;;2.90;1.50;;;;;;;;;;5029866;28;20830;-72
2021/09/16 11:55:39;;;;;;;3.60;1.73;;;;;;;;;;5023352;28;20449;-71
2021/09/16 11:58:06;;;;;;;5.90;1.90;;;;;;;;;;5009956;28;20505;-72
2021/09/16 12:00:32;;;;;;;3.40;1.73;;;;;;;;;;5009586;28;20472;-73
2021/09/16 12:02:58;;;;;;;3.10;1.40;;;;;;;;;;5009591;28;20445;-71
2021/09/16 12:05:42;;;;;;;3.70;1.60;;;;;;;;;;5017531;28;20433;-74
2021/09/16 12:08:13;;;;;;;5.00;2.40;;;;;;;;;;5030051;28;20418;-72
2021/09/16 12:10:41;;;;;;;6.90;2.50;;;;;;;;;;5022763;28;20443;-75
2021/09/16 12:13:08;;;;;;;4.60;1.87;;;;;;;;;;5024001;28;20451;-73
2021/09/16 12:15:36;;;;;;;2.90;1.73;;;;;;;;;;5013225;28;20424;-72
2021/09/16 12:18:02;;;;;;;2.83;1.90;;;;;;;;;;5009427;28;20449;-75
2021/09/16 12:20:28;;;;;;;4.10;1.73;;;;;;;;;;5009420;28;20492;-74
2021/09/16 12:22:54;;;;;;;6.20;2.07;;;;;;;;;;5014282;28;20768;-75
2021/09/16 12:25:20;;;;;;;3.57;1.73;;;;;;;;;;5012282;28;20421;-73
2021/09/16 12:28:01;;;;;;;2.80;1.67;;;;;;;;;;5023027;28;20434;-74
2021/09/16 12:30:27;;;;;;;2.30;1.90;;;;;;;;;;5009468;28;20842;-73
2021/09/16 12:32:53;;;;;;;3.00;1.97;;;;;;;;;;5024194;28;20458;-74
2021/09/16 12:35:19;;;;;;;3.30;1.80;;;;;;;;;;5009585;28;20446;-73
2021/09/16 12:37:45;;;;;;;6.50;1.80;;;;;;;;;;5022372;28;20828;-74
2021/09/16 12:40:27;;;;;;;4.47;1.77;;;;;;;;;;5009379;28;20469;-74
2021/09/16 12:43:03;;;;;;;6.57;1.97;;;;;;;;;;5010770;28;20957;-74
2021/09/16 12:45:30;;;;;;;6.03;3.03;;;;;;;;;;5022042;28;20881;-74
2021/09/16 12:47:57;;;;;;;3.53;1.90;;;;;;;;;;5030060;28;20482;-75
2021/09/16 12:50:23;;;;;;;5.30;2.17;;;;;;;;;;5020790;28;20457;-74
2021/09/16 12:52:49;;;;;;;3.00;1.90;;;;;;;;;;5013118;28;20756;-73
2021/09/16 12:55:16;;;;;;;4.03;1.87;;;;;;;;;;5011762;28;20933;-74
2021/09/16 12:57:43;;;;;;;11.10;3.23;;;;;;;;;;5012768;28;20421;-75
2021/09/16 13:00:11;;;;;;;3.30;2.70;;;;;;;;;;5013122;28;21219;-75
2021/09/16 13:02:46;;;;;;;4.10;2.10;;;;;;;;;;5013317;28;20426;-76
2021/09/16 13:05:18;;;;;;;7.40;2.20;;;;;;;;;;5012708;28;20420;-74
2021/09/16 13:07:45;;;;;;;4.53;2.50;;;;;;;;;;5014752;28;20428;-74
2021/09/16 13:10:20;;;;;;;4.97;2.60;;;;;;;;;;5026115;28;20428;-74
2021/09/16 13:12:48;;;;;;;5.00;2.27;;;;;;;;;;5012686;28;20515;-75
2021/09/16 13:15:16;;;;;;;3.77;2.07;;;;;;;;;;5012810;28;20846;-73
2021/09/16 13:17:42;;;;;;;3.63;2.03;;;;;;;;;;5012585;28;20420;-74
2021/09/16 13:20:09;;;;;;;2.73;2.00;;;;;;;;;;5012597;28;20480;-74
2021/09/16 13:22:38;;;;;;;4.30;2.30;;;;;;;;;;5028843;28;20512;-75
2021/09/16 13:25:05;;;;;;;4.03;1.80;;;;;;;;;;5012471;28;20425;-74
2021/09/16 13:27:31;;;;;;;2.97;2.00;;;;;;;;;;5017417;28;20417;-74
2021/09/16 13:29:58;;;;;;;3.33;1.70;;;;;;;;;;5012567;28;20469;-75
2021/09/16 13:32:24;;;;;;;4.40;1.90;;;;;;;;;;5016417;28;20936;-74
2021/09/16 13:34:50;;;;;;;3.67;2.30;;;;;;;;;;5012257;28;20911;-75
2021/09/16 13:37:16;;;;;;;4.37;2.23;;;;;;;;;;5012057;28;20434;-73
2021/09/16 13:39:42;;;;;;;2.40;1.73;;;;;;;;;;5012045;28;20477;-74
2021/09/16 13:42:08;;;;;;;2.70;1.90;;;;;;;;;;5016224;28;20420;-75
2021/09/16 13:44:34;;;;;;;5.50;2.30;;;;;;;;;;5011981;28;20422;-73
2021/09/16 13:47:00;;;;;;;3.27;1.90;;;;;;;;;;5011778;28;20744;-73
2021/09/16 13:49:26;;;;;;;3.30;2.27;;;;;;;;;;5011942;28;20418;-74
2021/09/16 13:51:52;;;;;;;3.77;2.20;;;;;;;;;;5012361;28;20421;-74
2021/09/16 13:54:18;;;;;;;4.73;1.87;;;;;;;;;;5010985;28;20424;-73
2021/09/16 13:56:44;;;;;;;3.37;1.90;;;;;;;;;;5011597;28;20421;-74
2021/09/16 13:59:10;;;;;;;4.43;2.17;;;;;;;;;;5011738;28;20510;-74
2021/09/16 14:01:36;;;;;;;3.27;1.80;;;;;;;;;;5021426;28;20409;-75
2021/09/16 14:04:02;;;;;;;4.37;2.17;;;;;;;;;;5015795;28;20411;-74
2021/09/16 14:06:28;;;;;;;5.33;2.10;;;;;;;;;;5011802;28;20437;-74
2021/09/16 14:08:54;;;;;;;3.90;2.20;;;;;;;;;;5011418;28;20465;-73
2021/09/16 14:11:20;;;;;;;3.80;2.00;;;;;;;;;;5011730;28;20973;-75
2021/09/16 14:13:46;;;;;;;6.77;2.30;;;;;;;;;;5014788;28;20504;-73
2021/09/16 14:16:12;;;;;;;5.27;2.70;;;;;;;;;;5021805;28;20807;-73
2021/09/16 14:18:38;;;;;;;3.13;1.90;;;;;;;;;;5011098;28;20426;-74
2021/09/16 14:21:04;;;;;;;3.27;2.20;;;;;;;;;;5011575;28;20430;-74
2021/09/16 14:23:31;;;;;;;4.00;2.50;;;;;;;;;;5028160;28;20419;-74
2021/09/16 14:25:57;;;;;;;4.30;1.90;;;;;;;;;;5031263;28;20412;-74
2021/09/16 14:28:23;;;;;;;5.77;2.40;;;;;;;;;;5030908;28;20420;-74
2021/09/16 14:30:49;;;;;;;3.73;2.20;;;;;;;;;;5020915;28;20445;-75
2021/09/16 14:33:20;;;;;;;5.47;1.93;;;;;;;;;;5011209;28;20427;-72
2021/09/16 14:35:46;;;;;;;3.87;2.50;;;;;;;;;;5011422;28;21264;-76
2021/09/16 14:38:12;;;;;;;3.97;2.30;;;;;;;;;;5010983;28;20414;-73
2021/09/16 14:40:38;;;;;;;2.40;1.77;;;;;;;;;;5013593;28;20477;-74